createdAt,value
2018-03-16T00:01:28.625Z,101602.30
2018-03-16T00:03:57.812Z,101596.03
2018-03-16T00:06:27.691Z,101594.73
2018-03-16T00:08:57.025Z,101599.72
2018-03-16T00:11:26.083Z,101598.91
2018-03-16T00:13:55.470Z,101603.86
2018-03-16T00:16:24.616Z,101609.70
2018-03-16T00:18:54.074Z,101600.94
2018-03-16T00:21:23.914Z,101608.41
2018-03-16T00:23:53.093Z,101604.26
2018-03-16T00:26:22.379Z,101606.31
2018-03-16T00:28:51.422Z,101603.81
2018-03-16T00:31:21.687Z,101598.41
2018-03-16T00:33:50.801Z,101613.82
2018-03-16T00:36:20.738Z,101610.89
2018-03-16T00:38:50.020Z,101608.84
2018-03-16T00:41:19.858Z,101609.68
2018-03-16T00:43:48.885Z,101614.23
2018-03-16T00:46:19.334Z,101612.59
2018-03-16T00:48:48.954Z,101616.32
2018-03-16T00:51:18.655Z,101613.37
2018-03-16T00:53:48.045Z,101612.09
2018-03-16T00:56:18.557Z,101605.83
2018-03-16T00:58:48.044Z,101601.21
2018-03-16T01:01:17.209Z,101601.16
2018-03-16T01:03:46.764Z,101602.41
2018-03-16T01:06:17.031Z,101602.41
2018-03-16T01:08:47.304Z,101608.64
2018-03-16T01:11:16.426Z,101602.36
2018-03-16T01:13:45.609Z,101608.14
2018-03-16T01:16:14.761Z,101603.55
2018-03-16T01:18:44.855Z,101607.67
2018-03-16T01:21:14.466Z,101608.86
2018-03-16T01:23:43.585Z,101611.34
2018-03-16T01:26:14.348Z,101611.70
2018-03-16T01:28:44.279Z,101611.72
2018-03-16T01:31:13.445Z,101610.81
2018-03-16T01:33:43.873Z,101611.17
2018-03-16T01:36:13.141Z,101604.06
2018-03-16T01:38:42.986Z,101618.18
2018-03-16T01:41:12.600Z,101617.34
2018-03-16T01:43:42.104Z,101617.73
2018-03-16T01:46:12.742Z,101618.09
2018-03-16T01:48:43.030Z,101620.97
2018-03-16T01:51:12.170Z,101625.50
2018-03-16T01:53:41.821Z,101626.33
2018-03-16T01:56:11.101Z,101627.96
2018-03-16T01:58:40.276Z,101632.08
2018-03-16T02:01:09.880Z,101627.03
2018-03-16T02:03:40.018Z,101623.23
2018-03-16T02:06:10.430Z,101629.00
2018-03-16T02:08:39.980Z,101637.33
2018-03-16T02:11:10.543Z,101638.95
2018-03-16T02:13:39.768Z,101643.86
2018-03-16T02:16:08.973Z,101637.56
2018-03-16T02:18:38.001Z,101645.02
2018-03-16T02:21:07.328Z,101643.70
2018-03-16T02:23:36.357Z,101636.14
2018-03-16T02:26:07.143Z,101650.28
2018-03-16T02:28:36.378Z,101645.24
2018-03-16T02:31:07.261Z,101653.13
2018-03-16T02:33:36.988Z,101652.70
2018-03-16T02:36:06.687Z,101653.09
2018-03-16T02:38:35.870Z,101656.38
2018-03-16T02:41:05.143Z,101660.94
2018-03-16T02:43:34.166Z,101657.97
2018-03-16T02:46:03.978Z,101661.61
2018-03-16T02:48:33.463Z,101659.58
2018-03-16T02:51:03.374Z,101668.73
2018-03-16T02:53:32.468Z,101668.30
2018-03-16T02:56:01.596Z,101666.12
2018-03-16T02:58:30.700Z,101666.91
2018-03-16T03:01:00.815Z,101671.05
2018-03-16T03:03:30.993Z,101671.00
2018-03-16T03:06:00.111Z,101671.03
2018-03-16T03:08:29.208Z,101664.81
2018-03-16T03:10:58.230Z,101667.74
2018-03-16T03:13:27.914Z,101663.58
2018-03-16T03:15:57.675Z,101663.95
2018-03-16T03:18:27.133Z,101663.12
2018-03-16T03:20:57.253Z,101666.06
2018-03-16T03:23:26.885Z,101666.03
2018-03-16T03:25:56.831Z,101666.84
2018-03-16T03:28:25.904Z,101670.23
2018-03-16T03:30:55.039Z,101672.76
2018-03-16T03:33:24.609Z,101666.56
2018-03-16T03:35:53.985Z,101665.28
2018-03-16T03:38:23.018Z,101666.92
2018-03-16T03:40:52.109Z,101666.55
2018-03-16T03:43:21.320Z,101671.94
2018-03-16T03:45:51.025Z,101669.40
2018-03-16T03:48:20.220Z,101666.84
2018-03-16T03:50:49.604Z,101670.91
2018-03-16T03:53:19.512Z,101670.89
2018-03-16T03:55:49.878Z,101673.34
2018-03-16T03:58:19.051Z,101666.70
2018-03-16T04:00:49.671Z,101679.91
2018-03-16T04:03:19.309Z,101678.63
2018-03-16T04:05:49.205Z,101676.05
2018-03-16T04:08:19.242Z,101676.83
2018-03-16T04:10:48.760Z,101673.05
2018-03-16T04:13:18.238Z,101677.95
2018-03-16T04:15:47.334Z,101670.82
2018-03-16T04:18:16.918Z,101677.43
2018-03-16T04:20:46.044Z,101674.11
2018-03-16T04:23:15.695Z,101670.34
2018-03-16T04:25:45.136Z,101671.17
2018-03-16T04:28:14.257Z,101676.16
2018-03-16T04:30:44.004Z,101671.19
2018-03-16T04:33:14.332Z,101674.94
2018-03-16T04:35:43.356Z,101677.43
2018-03-16T04:38:12.539Z,101678.27
2018-03-16T04:40:41.586Z,101674.52
2018-03-16T04:43:10.920Z,101674.14
2018-03-16T04:45:39.987Z,101674.54
2018-03-16T04:48:09.961Z,101673.70
2018-03-16T04:50:39.097Z,101678.72
2018-03-16T04:53:08.195Z,101680.79
2018-03-16T04:55:38.212Z,101686.91
2018-03-16T04:58:07.724Z,101702.66
2018-03-16T05:00:37.446Z,101693.05
2018-03-16T05:03:07.315Z,101696.28
2018-03-16T05:05:36.443Z,101688.69
2018-03-16T05:08:06.491Z,101685.80
2018-03-16T05:10:36.406Z,101683.28
2018-03-16T05:13:05.446Z,101680.02
2018-03-16T05:15:34.474Z,101673.84
2018-03-16T05:18:03.810Z,101682.61
2018-03-16T05:20:33.353Z,101675.99
2018-03-16T05:23:02.801Z,101671.85
2018-03-16T05:25:31.845Z,101672.27
2018-03-16T05:28:01.140Z,101683.51
2018-03-16T05:30:30.932Z,101671.83
2018-03-16T05:33:00.401Z,101681.80
2018-03-16T05:35:29.748Z,101699.30
2018-03-16T05:37:58.908Z,101682.76
2018-03-16T05:40:29.531Z,101692.72
2018-03-16T05:42:58.812Z,101698.20
2018-03-16T05:45:28.080Z,101696.56
2018-03-16T05:47:57.125Z,101694.55
2018-03-16T05:50:26.654Z,101685.86
2018-03-16T05:52:55.986Z,101693.38
2018-03-16T05:55:25.301Z,101689.66
2018-03-16T05:57:54.899Z,101691.00
2018-03-16T06:00:24.776Z,101692.73
2018-03-16T06:02:53.853Z,101690.19
2018-03-16T06:05:24.030Z,101703.89
2018-03-16T06:07:53.509Z,101696.84
2018-03-16T06:10:22.658Z,101699.42
2018-03-16T06:12:52.010Z,101694.48
2018-03-16T06:15:21.828Z,101699.86
2018-03-16T06:17:51.748Z,101701.56
2018-03-16T06:20:21.173Z,101703.59
2018-03-16T06:22:50.793Z,101696.59
2018-03-16T06:25:20.160Z,101696.66
2018-03-16T06:27:50.022Z,101704.23
2018-03-16T06:30:19.102Z,101693.38
2018-03-16T06:32:48.139Z,101697.05
2018-03-16T06:35:18.018Z,101706.17
2018-03-16T06:37:47.978Z,101698.74
2018-03-16T06:40:17.095Z,101698.85
2018-03-16T06:42:46.530Z,101708.83
2018-03-16T06:45:16.396Z,101705.89
2018-03-16T06:47:46.059Z,101709.70
2018-03-16T06:50:15.937Z,101708.13
2018-03-16T06:52:45.662Z,101711.51
2018-03-16T06:55:15.156Z,101714.45
2018-03-16T06:57:44.607Z,101699.10
2018-03-16T07:00:13.642Z,101695.45
2018-03-16T07:02:44.491Z,101691.33
2018-03-16T07:05:13.990Z,101711.73
2018-03-16T07:07:43.122Z,101709.30
2018-03-16T07:10:13.390Z,101707.92
2018-03-16T07:12:42.453Z,101705.25
2018-03-16T07:15:24.862Z,101715.98
2018-03-16T07:17:55.615Z,101709.31
2018-03-16T07:20:24.776Z,101714.39
2018-03-16T07:22:54.121Z,101704.86
2018-03-16T07:25:23.435Z,101713.08
2018-03-16T07:27:52.725Z,101708.89
2018-03-16T07:30:21.807Z,101703.78
2018-03-16T07:32:51.185Z,101704.27
2018-03-16T07:35:20.526Z,101704.84
2018-03-16T07:37:50.017Z,101695.77
2018-03-16T07:40:19.094Z,101704.97
2018-03-16T07:42:48.203Z,101704.19
2018-03-16T07:45:17.765Z,101704.22
2018-03-16T07:47:47.566Z,101702.10
2018-03-16T07:50:17.033Z,101684.17
2018-03-16T07:52:46.085Z,101694.09
2018-03-16T07:55:15.177Z,101696.59
2018-03-16T07:57:44.232Z,101690.59
2018-03-16T08:00:14.983Z,101687.43
2018-03-16T08:02:44.377Z,101688.38
2018-03-16T08:05:13.444Z,101687.63
2018-03-16T08:07:42.480Z,101685.48
2018-03-16T08:10:11.514Z,101691.64
2018-03-16T08:12:40.536Z,101691.21
2018-03-16T08:15:10.131Z,101697.79
2018-03-16T08:17:39.572Z,101693.67
2018-03-16T08:20:09.378Z,101691.68
2018-03-16T08:22:38.409Z,101688.88
2018-03-16T08:25:08.016Z,101689.05
2018-03-16T08:27:38.198Z,101694.16
2018-03-16T08:30:08.384Z,101697.42
2018-03-16T08:32:38.133Z,101688.34
2018-03-16T08:35:08.003Z,101680.88
2018-03-16T08:37:37.411Z,101684.65
2018-03-16T08:40:06.557Z,101682.19
2018-03-16T08:42:35.595Z,101696.31
2018-03-16T08:45:05.023Z,101701.37
2018-03-16T08:47:34.146Z,101699.67
2018-03-16T08:50:03.798Z,101708.02
2018-03-16T08:52:33.320Z,101695.94
2018-03-16T08:55:02.994Z,101710.02
2018-03-16T08:57:33.195Z,101697.50
2018-03-16T09:00:02.450Z,101698.77
2018-03-16T09:02:33.787Z,101682.94
2018-03-16T09:05:03.088Z,101695.34
2018-03-16T09:07:32.821Z,101687.02
2018-03-16T09:10:02.593Z,101678.20
2018-03-16T09:12:32.059Z,101692.38
2018-03-16T09:15:01.465Z,101702.73
2018-03-16T09:17:31.026Z,101695.77
2018-03-16T09:20:01.305Z,101699.54
2018-03-16T09:22:30.604Z,101690.87
2018-03-16T09:25:00.455Z,101692.98
2018-03-16T09:27:30.354Z,101694.66
2018-03-16T09:29:59.406Z,101696.28
2018-03-16T09:32:28.469Z,101696.29
2018-03-16T09:34:58.464Z,101695.02
2018-03-16T09:37:27.496Z,101688.73
2018-03-16T09:39:57.276Z,101691.64
2018-03-16T09:42:26.410Z,101692.52
2018-03-16T09:44:55.544Z,101690.91
2018-03-16T09:47:25.136Z,101693.68
2018-03-16T09:49:54.383Z,101690.77
2018-03-16T09:52:23.501Z,101687.02
2018-03-16T09:55:05.444Z,101695.77
2018-03-16T09:57:35.622Z,101685.86
2018-03-16T10:00:04.686Z,101685.53
2018-03-16T10:02:33.781Z,101688.06
2018-03-16T10:05:02.883Z,101686.32
2018-03-16T10:07:32.966Z,101688.41
2018-03-16T10:10:02.241Z,101696.36
2018-03-16T10:12:32.478Z,101696.41
2018-03-16T10:15:01.950Z,101693.81
2018-03-16T10:17:31.053Z,101694.22
2018-03-16T10:20:00.087Z,101698.33
2018-03-16T10:22:29.236Z,101701.28
2018-03-16T10:24:58.644Z,101705.02
2018-03-16T10:27:28.201Z,101713.86
2018-03-16T10:29:58.163Z,101707.21
2018-03-16T10:32:27.263Z,101712.58
2018-03-16T10:34:56.287Z,101713.00
2018-03-16T10:37:25.433Z,101700.40
2018-03-16T10:39:54.556Z,101701.69
2018-03-16T10:42:24.117Z,101706.72
2018-03-16T10:44:53.660Z,101712.44
2018-03-16T10:47:22.689Z,101692.88
2018-03-16T10:49:52.313Z,101705.52
2018-03-16T10:52:22.667Z,101705.67
2018-03-16T10:54:52.786Z,101698.16
2018-03-16T10:57:22.437Z,101696.44
2018-03-16T10:59:51.522Z,101698.07
2018-03-16T11:02:20.625Z,101712.44
2018-03-16T11:04:55.292Z,101702.38
2018-03-16T11:07:43.183Z,101703.81
2018-03-16T11:10:23.993Z,101711.25
2018-03-16T11:12:54.754Z,101706.83
2018-03-16T11:15:23.898Z,101709.54
2018-03-16T11:17:52.990Z,101709.36
2018-03-16T11:20:22.130Z,101705.53
2018-03-16T11:22:51.948Z,101708.11
2018-03-16T11:25:21.950Z,101694.84
2018-03-16T11:27:51.953Z,101711.66
2018-03-16T11:30:21.850Z,101687.43
2018-03-16T11:32:50.961Z,101705.83
2018-03-16T11:35:19.985Z,101707.48
2018-03-16T11:37:49.647Z,101693.53
2018-03-16T11:40:18.730Z,101712.03
2018-03-16T11:42:48.506Z,101703.46
2018-03-16T11:45:18.270Z,101714.04
2018-03-16T11:47:47.628Z,101711.62
2018-03-16T11:50:16.781Z,101699.98
2018-03-16T11:52:45.828Z,101702.88
2018-03-16T11:55:15.681Z,101697.17
2018-03-16T11:57:44.819Z,101699.39
2018-03-16T12:00:13.869Z,101709.41
2018-03-16T12:02:44.165Z,101711.42
2018-03-16T12:05:13.286Z,101709.25
2018-03-16T12:07:42.798Z,101704.36
2018-03-16T12:10:12.286Z,101705.28
2018-03-16T12:12:42.001Z,101695.67
2018-03-16T12:15:12.739Z,101697.28
2018-03-16T12:17:41.889Z,101699.09
2018-03-16T12:20:11.706Z,101677.76
2018-03-16T12:22:40.743Z,101691.23
2018-03-16T12:25:10.132Z,101684.89
2018-03-16T12:27:55.944Z,101668.55
2018-03-16T12:30:25.576Z,101685.59
2018-03-16T12:33:01.219Z,101688.88
2018-03-16T12:35:31.838Z,101670.50
2018-03-16T12:38:01.391Z,101683.91
2018-03-16T12:40:31.129Z,101665.69
2018-03-16T12:43:00.652Z,101677.28
2018-03-16T12:45:29.678Z,101670.71
2018-03-16T12:47:58.713Z,101661.98
2018-03-16T12:50:28.690Z,101666.59
2018-03-16T12:52:57.725Z,101670.20
2018-03-16T12:55:26.767Z,101675.77
2018-03-16T12:57:56.096Z,101662.36
2018-03-16T13:00:25.130Z,101676.98
2018-03-16T13:02:54.173Z,101665.76
2018-03-16T13:05:23.345Z,101675.53
2018-03-16T13:07:52.569Z,101675.55
2018-03-16T13:10:21.577Z,101669.56
2018-03-16T13:12:51.006Z,101671.66
2018-03-16T13:15:20.057Z,101672.21
2018-03-16T13:17:49.104Z,101670.78
2018-03-16T13:20:18.150Z,101658.98
2018-03-16T13:22:47.176Z,101664.64
2018-03-16T13:25:16.307Z,101653.83
2018-03-16T13:27:46.854Z,101663.38
2018-03-16T13:30:15.928Z,101666.78
2018-03-16T13:32:44.953Z,101667.77
2018-03-16T13:35:13.997Z,101665.02
2018-03-16T13:37:43.022Z,101657.27
2018-03-16T13:40:12.357Z,101664.42
2018-03-16T13:42:43.008Z,101664.59
2018-03-16T13:45:12.032Z,101663.21
2018-03-16T13:47:41.535Z,101662.75
2018-03-16T13:50:10.563Z,101660.78
2018-03-16T13:52:40.095Z,101660.17
2018-03-16T13:55:09.122Z,101651.31
2018-03-16T13:57:38.554Z,101649.27
2018-03-16T14:00:07.586Z,101655.31
2018-03-16T14:02:37.671Z,101646.45
2018-03-16T14:05:06.715Z,101646.19
2018-03-16T14:07:35.766Z,101664.55
2018-03-16T14:10:04.798Z,101649.25
2018-03-16T14:12:33.821Z,101649.48
2018-03-16T14:15:02.845Z,101667.78
2018-03-16T14:17:31.877Z,101657.37
2018-03-16T14:20:00.909Z,101651.72
2018-03-16T14:22:29.942Z,101649.45
2018-03-16T14:24:59.174Z,101663.76
2018-03-16T14:27:28.202Z,101659.02
2018-03-16T14:29:57.640Z,101667.84
2018-03-16T14:32:27.045Z,101657.77
2018-03-16T14:34:56.144Z,101657.88
2018-03-16T14:37:25.175Z,101663.62
2018-03-16T14:39:54.422Z,101661.11
2018-03-16T14:42:23.621Z,101664.48
2018-03-16T14:44:52.661Z,101673.56
2018-03-16T14:47:21.726Z,101671.17
2018-03-16T14:49:50.755Z,101670.97
2018-03-16T14:52:20.116Z,101672.04
2018-03-16T14:54:49.294Z,101692.59
2018-03-16T14:57:18.670Z,101677.61
2018-03-16T14:59:47.725Z,101674.35
2018-03-16T15:02:17.648Z,101679.28
2018-03-16T15:04:46.677Z,101681.81
2018-03-16T15:07:16.150Z,101686.77
2018-03-16T15:09:45.274Z,101687.60
2018-03-16T15:12:14.301Z,101682.27
2018-03-16T15:14:43.403Z,101676.61
2018-03-16T15:17:12.467Z,101672.28
2018-03-16T15:19:41.844Z,101673.86
2018-03-16T15:22:11.186Z,101670.43
2018-03-16T15:24:40.218Z,101668.41
2018-03-16T15:27:09.327Z,101666.31
2018-03-16T15:29:38.545Z,101675.31
2018-03-16T15:32:07.660Z,101665.22
2018-03-16T15:34:36.905Z,101680.16
2018-03-16T15:37:05.993Z,101683.81
2018-03-16T15:39:35.069Z,101673.34
2018-03-16T15:42:04.340Z,101672.53
2018-03-16T15:44:33.586Z,101674.70
2018-03-16T15:47:02.707Z,101684.72
2018-03-16T15:49:31.814Z,101681.69
2018-03-16T15:52:00.914Z,101681.27
2018-03-16T15:54:30.232Z,101685.51
2018-03-16T15:56:59.736Z,101668.93
2018-03-16T15:59:28.844Z,101668.02
2018-03-16T16:01:57.982Z,101682.83
2018-03-16T16:04:27.023Z,101672.38
2018-03-16T16:06:56.475Z,101678.92
2018-03-16T16:09:25.552Z,101684.27
2018-03-16T16:11:54.721Z,101688.40
2018-03-16T16:14:23.767Z,101680.44
2018-03-16T16:16:52.822Z,101667.99
2018-03-16T16:19:22.342Z,101686.23
2018-03-16T16:21:51.394Z,101670.47
2018-03-16T16:24:20.421Z,101682.05
2018-03-16T16:26:49.858Z,101693.68
2018-03-16T16:29:18.897Z,101672.48
2018-03-16T16:31:47.924Z,101685.27
2018-03-16T16:34:16.961Z,101679.88
2018-03-16T16:36:46.007Z,101676.22
2018-03-16T16:39:15.097Z,101684.52
2018-03-16T16:41:44.125Z,101677.53
2018-03-16T16:44:13.161Z,101681.67
2018-03-16T16:46:42.202Z,101696.05
2018-03-16T16:49:11.232Z,101694.41
2018-03-16T16:51:41.469Z,101691.94
2018-03-16T16:54:10.517Z,101687.86
2018-03-16T16:56:39.591Z,101677.95
2018-03-16T16:59:08.908Z,101694.50
2018-03-16T17:01:37.941Z,101697.38
2018-03-16T17:04:06.984Z,101685.78
2018-03-16T17:06:36.014Z,101690.31
2018-03-16T17:09:05.105Z,101695.27
2018-03-16T17:11:34.510Z,101699.02
2018-03-16T17:14:03.565Z,101702.81
2018-03-16T17:16:33.173Z,101692.48
2018-03-16T17:19:02.241Z,101699.50
2018-03-16T17:21:31.273Z,101694.91
2018-03-16T17:24:00.350Z,101687.44
2018-03-16T17:26:29.499Z,101705.66
2018-03-16T17:28:58.595Z,101699.05
2018-03-16T17:31:28.027Z,101706.94
2018-03-16T17:33:58.122Z,101699.45
2018-03-16T17:36:27.279Z,101717.75
2018-03-16T17:38:56.676Z,101716.46
2018-03-16T17:41:27.214Z,101717.33
2018-03-16T17:43:56.357Z,101719.80
2018-03-16T17:46:25.402Z,101717.26
2018-03-16T17:48:54.450Z,101724.31
2018-03-16T17:51:25.312Z,101720.19
2018-03-16T17:53:55.552Z,101722.30
2018-03-16T17:56:24.709Z,101717.31
2018-03-16T17:58:53.862Z,101733.03
2018-03-16T18:01:23.184Z,101726.05
2018-03-16T18:03:53.492Z,101731.84
2018-03-16T18:06:22.544Z,101733.31
2018-03-16T18:08:52.346Z,101730.00
2018-03-16T18:11:21.386Z,101732.80
2018-03-16T18:13:50.564Z,101745.64
2018-03-16T18:16:20.168Z,101731.50
2018-03-16T18:18:49.282Z,101746.42
2018-03-16T18:21:22.905Z,101742.20
2018-03-16T18:23:52.062Z,101734.66
2018-03-16T18:26:21.129Z,101733.42
2018-03-16T18:28:50.170Z,101744.19
2018-03-16T18:31:19.242Z,101731.32
2018-03-16T18:33:48.648Z,101732.19
2018-03-16T18:36:17.797Z,101733.03
2018-03-16T18:38:46.845Z,101738.79
2018-03-16T18:41:15.901Z,101742.47
2018-03-16T18:43:44.967Z,101739.01
2018-03-16T18:46:14.301Z,101751.87
2018-03-16T18:48:43.337Z,101752.30
2018-03-16T18:51:12.405Z,101756.84
2018-03-16T18:53:41.841Z,101758.13
2018-03-16T18:56:10.874Z,101761.01
2018-03-16T18:58:40.929Z,101770.05
2018-03-16T19:01:12.043Z,101763.86
2018-03-16T19:03:41.337Z,101770.82
2018-03-16T19:06:11.398Z,101763.65
2018-03-16T19:08:40.871Z,101771.81
2018-03-16T19:11:10.131Z,101775.08
2018-03-16T19:13:39.190Z,101778.19
2018-03-16T19:16:08.246Z,101770.97
2018-03-16T19:18:37.269Z,101769.70
2018-03-16T19:21:06.514Z,101770.97
2018-03-16T19:23:38.730Z,101765.14
2018-03-16T19:26:07.998Z,101781.73
2018-03-16T19:28:39.564Z,101782.65
2018-03-16T19:31:08.772Z,101778.17
2018-03-16T19:33:37.819Z,101787.03
2018-03-16T19:36:07.121Z,101777.50
2018-03-16T19:38:39.100Z,101784.17
2018-03-16T19:41:08.583Z,101781.70
2018-03-16T19:43:38.719Z,101788.23
2018-03-16T19:46:07.910Z,101781.59
2018-03-16T19:48:37.090Z,101782.48
2018-03-16T19:51:06.099Z,101793.72
2018-03-16T19:53:35.148Z,101794.12
2018-03-16T19:56:04.183Z,101790.39
2018-03-16T19:58:34.089Z,101795.20
2018-03-16T20:01:03.646Z,101814.62
2018-03-16T20:03:32.678Z,101801.34
2018-03-16T20:06:01.709Z,101803.03
2018-03-16T20:08:30.785Z,101810.05
2018-03-16T20:10:59.818Z,101812.18
2018-03-16T20:13:28.872Z,101804.44
2018-03-16T20:15:58.262Z,101816.64
2018-03-16T20:18:27.661Z,101823.53
2018-03-16T20:20:56.704Z,101811.11
2018-03-16T20:23:25.738Z,101820.25
2018-03-16T20:25:54.774Z,101822.80
2018-03-16T20:28:23.810Z,101822.46
2018-03-16T20:30:52.849Z,101819.60
2018-03-16T20:33:21.910Z,101834.98
2018-03-16T20:35:50.954Z,101828.70
2018-03-16T20:38:20.970Z,101834.36
2018-03-16T20:40:50.197Z,101830.58
2018-03-16T20:43:20.981Z,101840.53
2018-03-16T20:45:54.120Z,101848.73
2018-03-16T20:48:23.654Z,101844.91
2018-03-16T20:50:53.144Z,101851.42
2018-03-16T20:53:22.193Z,101845.55
2018-03-16T20:55:51.823Z,101837.30
2018-03-16T20:58:21.109Z,101857.16
2018-03-16T21:00:51.027Z,101843.06
2018-03-16T21:03:20.230Z,101848.83
2018-03-16T21:05:49.536Z,101852.52
2018-03-16T21:08:18.596Z,101847.15
2018-03-16T21:10:47.667Z,101849.23
2018-03-16T21:13:16.840Z,101853.02
2018-03-16T21:15:45.930Z,101843.98
2018-03-16T21:18:15.417Z,101837.45
2018-03-16T21:20:44.765Z,101854.09
2018-03-16T21:23:15.012Z,101858.19
2018-03-16T21:25:44.529Z,101849.38
2018-03-16T21:28:13.571Z,101851.88
2018-03-16T21:30:47.782Z,101847.22
2018-03-16T21:33:23.190Z,101849.70
2018-03-16T21:35:52.345Z,101851.77
2018-03-16T21:38:21.925Z,101857.98
2018-03-16T21:40:51.938Z,101841.82
2018-03-16T21:43:20.970Z,101867.09
2018-03-16T21:45:50.088Z,101855.97
2018-03-16T21:48:19.130Z,101864.31
2018-03-16T21:50:48.236Z,101862.66
2018-03-16T21:53:18.068Z,101855.59
2018-03-16T21:55:48.930Z,101869.23
2018-03-16T21:58:17.984Z,101858.09
2018-03-16T22:00:47.467Z,101858.91
2018-03-16T22:03:17.475Z,101854.80
2018-03-16T22:05:46.771Z,101866.12
2018-03-16T22:08:15.809Z,101870.33
2018-03-16T22:10:45.312Z,101869.02
2018-03-16T22:13:17.730Z,101853.64
2018-03-16T22:15:47.490Z,101869.02
2018-03-16T22:18:16.568Z,101871.95
2018-03-16T22:20:45.783Z,101859.06
2018-03-16T22:23:15.246Z,101869.89
2018-03-16T22:25:44.480Z,101874.83
2018-03-16T22:28:13.517Z,101883.48
2018-03-16T22:30:42.546Z,101873.11
2018-03-16T22:33:12.490Z,101872.77
2018-03-16T22:35:42.158Z,101879.78
2018-03-16T22:38:11.602Z,101873.88
2018-03-16T22:40:40.703Z,101888.67
2018-03-16T22:43:10.001Z,101885.34
2018-03-16T22:45:39.532Z,101883.70
2018-03-16T22:48:08.574Z,101881.94
2018-03-16T22:50:37.710Z,101888.89
2018-03-16T22:53:06.749Z,101874.77
2018-03-16T22:55:35.852Z,101887.23
2018-03-16T22:58:05.430Z,101889.38
2018-03-16T23:00:34.811Z,101888.09
2018-03-16T23:03:05.228Z,101893.55
2018-03-16T23:05:34.620Z,101897.22
2018-03-16T23:08:03.814Z,101890.67
2018-03-16T23:10:34.346Z,101896.86
2018-03-16T23:13:03.504Z,101895.53
2018-03-16T23:15:32.760Z,101894.27
2018-03-16T23:18:01.864Z,101895.05
2018-03-16T23:20:30.910Z,101897.09
2018-03-16T23:23:01.191Z,101903.68
2018-03-16T23:25:30.596Z,101904.81
2018-03-16T23:28:00.106Z,101894.82
2018-03-16T23:30:29.507Z,101890.77
2018-03-16T23:32:58.852Z,101902.84
2018-03-16T23:35:27.906Z,101899.84
2018-03-16T23:37:56.941Z,101891.94
2018-03-16T23:40:25.994Z,101901.88
2018-03-16T23:42:55.031Z,101909.26
2018-03-16T23:45:24.063Z,101902.25
2018-03-16T23:47:53.128Z,101911.45
2018-03-16T23:50:22.183Z,101905.21
2018-03-16T23:52:51.287Z,101919.31
2018-03-16T23:55:20.433Z,101914.82
2018-03-16T23:57:49.609Z,101903.68
